Time;durP1;ratioP1;P1;durP2;ratioP2;P2;SDS_P1;SDS_P2;PMS_P1;PMS_P2;Temp;Humidity;BMP_temperature;BMP_pressure;BME280_temperature;BME280_humidity;BME280_pressure;Samples;Min_cycle;Max_cycle;Signal;HPM_P1;HPM_P2
2021/07/11 12:16:40;;;;;;;5.93;2.97;;;31.30;47.40;;;;;;5083966;28;20446;-73
2021/07/11 12:19:07;;;;;;;2.88;2.53;;;30.70;51.20;;;;;;5066589;28;20471;-75
2021/07/11 12:21:36;;;;;;;5.38;2.70;;;31.50;48.70;;;;;;5067037;28;20098;-75
2021/07/11 12:24:06;;;;;;;2.75;2.50;;;32.30;46.40;;;;;;5065102;28;20040;-72
2021/07/11 12:26:37;;;;;;;3.40;2.38;;;33.20;44.20;;;;;;5069970;28;20028;-73
2021/07/11 12:29:04;;;;;;;4.57;2.65;;;33.20;43.80;;;;;;5064062;28;20040;-73
2021/07/11 12:31:30;;;;;;;2.83;2.50;;;33.20;47.30;;;;;;5066124;28;20037;-74
2021/07/11 12:34:32;;;;;;;2.65;2.42;;;33.80;43.00;;;;;;5071521;28;20024;-73
2021/07/11 12:37:00;;;;;;;2.40;2.20;;;34.70;43.90;;;;;;5057025;28;20048;-73
2021/07/11 12:39:33;;;;;;;2.40;1.90;;;35.60;38.90;;;;;;5066774;28;20056;-73
2021/07/11 12:41:58;;;;;;;2.45;2.25;;;36.10;41.50;;;;;;5063862;28;20024;-74
2021/07/11 12:44:40;;;;;;;4.13;2.28;;;36.40;40.10;;;;;;5063598;28;20028;-74
2021/07/11 12:47:11;;;;;;;2.60;2.40;;;36.20;38.40;;;;;;5065699;28;20322;-72
2021/07/11 12:49:37;;;;;;;2.28;2.10;;;35.90;38.90;;;;;;5078817;28;20157;-72
2021/07/11 12:52:14;;;;;;;2.88;2.28;;;36.10;40.30;;;;;;5065362;28;20581;-72
2021/07/11 12:54:40;;;;;;;3.85;2.90;;;35.10;39.40;;;;;;5064432;28;20035;-72
2021/07/11 12:57:07;;;;;;;4.18;2.22;;;34.90;41.10;;;;;;5069611;28;20028;-72
2021/07/11 12:59:44;;;;;;;2.72;2.50;;;34.40;40.40;;;;;;5077480;28;20082;-72
2021/07/11 13:02:22;;;;;;;3.28;2.97;;;33.40;44.90;;;;;;5067700;28;20457;-74
2021/07/11 13:05:05;;;;;;;2.50;2.30;;;33.30;45.10;;;;;;5066816;28;20028;-74
2021/07/11 13:07:31;;;;;;;3.75;2.90;;;33.50;43.80;;;;;;5066722;28;20597;-75
2021/07/11 13:10:00;;;;;;;2.60;2.40;;;33.30;42.90;;;;;;5066830;28;20037;-74
2021/07/11 13:12:27;;;;;;;2.80;2.60;;;33.10;44.80;;;;;;5062495;28;20028;-75
2021/07/11 13:14:58;;;;;;;2.47;2.15;;;33.30;44.10;;;;;;5065100;28;20049;-75
2021/07/11 13:17:25;;;;;;;3.08;2.40;;;33.20;43.20;;;;;;5061643;28;20376;-75
2021/07/11 13:19:51;;;;;;;3.85;2.60;;;34.00;44.60;;;;;;5050078;28;20018;-75
2021/07/11 13:22:18;;;;;;;2.63;2.42;;;34.40;42.00;;;;;;5061995;28;20036;-74
2021/07/11 13:24:44;;;;;;;6.30;2.70;;;34.80;42.10;;;;;;5065505;28;20032;-72
2021/07/11 13:27:09;;;;;;;3.47;2.55;;;34.50;41.50;;;;;;5055439;28;20041;-73
2021/07/11 13:29:35;;;;;;;2.58;2.38;;;34.20;40.80;;;;;;5051719;28;20025;-72
2021/07/11 13:32:00;;;;;;;2.20;2.00;;;33.60;41.80;;;;;;5051887;28;20071;-72
2021/07/11 13:34:26;;;;;;;2.03;1.92;;;32.90;42.80;;;;;;5055417;28;20021;-71
2021/07/11 13:36:51;;;;;;;2.75;2.33;;;33.20;43.90;;;;;;5049981;28;20035;-75
2021/07/11 13:39:17;;;;;;;2.58;2.38;;;33.90;43.70;;;;;;5041383;28;20051;-74
2021/07/11 13:41:43;;;;;;;2.92;2.72;;;34.30;43.00;;;;;;5046037;28;20024;-73
2021/07/11 13:44:08;;;;;;;2.58;2.38;;;34.00;40.90;;;;;;5051324;28;20051;-73
2021/07/11 13:46:33;;;;;;;2.67;2.47;;;34.00;43.10;;;;;;5049471;28;20025;-73
2021/07/11 13:48:59;;;;;;;4.47;2.60;;;34.30;42.70;;;;;;5051233;28;20464;-73
2021/07/11 13:51:26;;;;;;;7.90;2.50;;;33.90;41.80;;;;;;5051256;28;20024;-72
2021/07/11 13:53:51;;;;;;;5.57;2.15;;;33.60;45.30;;;;;;5050870;28;20021;-72
2021/07/11 13:56:17;;;;;;;4.00;2.95;;;33.50;42.40;;;;;;5048874;28;20035;-72
2021/07/11 13:58:42;;;;;;;3.47;2.60;;;33.20;44.10;;;;;;5048948;28;20069;-72
2021/07/11 14:01:08;;;;;;;3.33;2.22;;;32.40;42.70;;;;;;5049961;28;20052;-71
2021/07/11 14:03:33;;;;;;;3.10;2.75;;;31.70;45.20;;;;;;5040313;28;20033;-70
2021/07/11 14:05:59;;;;;;;3.60;2.30;;;31.50;45.90;;;;;;5048264;28;20021;-71
2021/07/11 14:08:24;;;;;;;2.80;2.50;;;31.40;45.70;;;;;;5049938;28;20031;-70
2021/07/11 14:10:50;;;;;;;4.95;2.38;;;31.50;46.40;;;;;;5049619;28;20028;-73
2021/07/11 14:13:15;;;;;;;3.22;2.22;;;32.10;46.20;;;;;;5050361;28;20287;-74
2021/07/11 14:15:41;;;;;;;2.90;2.60;;;32.50;44.80;;;;;;5052298;28;20048;-72
2021/07/11 14:18:06;;;;;;;2.95;2.20;;;32.80;44.20;;;;;;5049128;28;20427;-72
2021/07/11 14:20:32;;;;;;;2.85;2.30;;;33.20;42.70;;;;;;5047481;28;20082;-72
2021/07/11 14:22:58;;;;;;;3.90;2.40;;;33.70;42.60;;;;;;5049248;28;20061;-72
2021/07/11 14:25:23;;;;;;;2.60;2.20;;;34.10;40.40;;;;;;5052191;28;20071;-72
2021/07/11 14:27:49;;;;;;;4.22;2.30;;;34.30;41.30;;;;;;5049490;28;20399;-72
2021/07/11 14:30:15;;;;;;;2.65;2.45;;;34.50;40.00;;;;;;5050395;28;20442;-70
2021/07/11 14:32:41;;;;;;;2.60;2.40;;;34.70;41.10;;;;;;5050764;28;20438;-70
2021/07/11 14:35:07;;;;;;;2.13;2.03;;;34.40;40.40;;;;;;5049294;28;20024;-70
2021/07/11 14:37:33;;;;;;;2.60;2.40;;;34.70;40.90;;;;;;5052667;28;20032;-72
2021/07/11 14:39:58;;;;;;;2.65;2.22;;;34.70;41.20;;;;;;5043667;28;20082;-71
2021/07/11 14:42:24;;;;;;;2.55;2.35;;;35.10;41.50;;;;;;5047056;28;20115;-71
2021/07/11 14:44:49;;;;;;;2.63;2.42;;;34.60;40.70;;;;;;5046005;28;20037;-70
2021/07/11 14:47:15;;;;;;;2.75;2.55;;;35.00;43.10;;;;;;5045065;28;20119;-71
2021/07/11 14:49:41;;;;;;;4.35;2.17;;;35.20;40.00;;;;;;5044827;28;20572;-71
2021/07/11 14:52:09;;;;;;;2.92;2.45;;;34.80;38.90;;;;;;5047106;28;20499;-71
2021/07/11 14:54:35;;;;;;;4.25;2.38;;;34.70;39.70;;;;;;5045759;28;20033;-71
2021/07/11 14:57:01;;;;;;;7.70;2.60;;;34.90;40.90;;;;;;5045475;28;20066;-72
2021/07/11 14:59:27;;;;;;;2.80;2.58;;;34.90;40.10;;;;;;5046208;28;20017;-71
2021/07/11 15:01:52;;;;;;;2.80;2.60;;;34.40;38.90;;;;;;5046492;28;20464;-70
2021/07/11 15:04:33;;;;;;;4.55;3.03;;;34.00;42.80;;;;;;5046241;28;20737;-71
2021/07/11 15:06:59;;;;;;;3.00;2.53;;;33.70;40.50;;;;;;5047167;28;20035;-71
2021/07/11 15:09:24;;;;;;;2.83;2.50;;;33.50;41.40;;;;;;5045918;28;20162;-71
2021/07/11 15:11:50;;;;;;;3.00;2.67;;;33.30;41.60;;;;;;5047605;28;20020;-71
2021/07/11 15:14:15;;;;;;;2.75;2.45;;;33.30;41.70;;;;;;5046999;28;20490;-70
2021/07/11 15:16:41;;;;;;;2.75;2.22;;;33.40;42.00;;;;;;5046761;28;20017;-70
2021/07/11 15:19:08;;;;;;;3.47;2.70;;;33.90;40.60;;;;;;5046480;28;20055;-70
2021/07/11 15:21:33;;;;;;;5.90;2.78;;;34.30;40.90;;;;;;5047318;28;20021;-70
2021/07/11 15:23:59;;;;;;;3.22;2.40;;;34.60;40.90;;;;;;5047032;28;20029;-70
2021/07/11 15:26:24;;;;;;;3.10;2.78;;;34.60;41.50;;;;;;5048569;28;20029;-70
2021/07/11 15:28:51;;;;;;;3.15;2.47;;;34.40;41.40;;;;;;5046526;28;20035;-70
2021/07/11 15:31:17;;;;;;;4.03;2.83;;;34.20;40.90;;;;;;5046649;28;20040;-71
2021/07/11 15:33:43;;;;;;;2.83;2.63;;;33.80;40.50;;;;;;5043255;28;20479;-70
2021/07/11 15:36:10;;;;;;;3.25;2.90;;;33.60;40.20;;;;;;5044997;28;20033;-69
2021/07/11 15:38:36;;;;;;;5.32;2.50;;;33.70;42.20;;;;;;5046921;28;20368;-70
2021/07/11 15:41:02;;;;;;;5.72;4.60;;;33.60;42.80;;;;;;5045559;28;20036;-70
2021/07/11 15:43:27;;;;;;;2.92;2.67;;;33.80;41.00;;;;;;5043312;28;20032;-70
2021/07/11 15:45:53;;;;;;;5.53;2.75;;;33.60;42.50;;;;;;5035810;28;20619;-69
2021/07/11 15:48:19;;;;;;;2.75;2.50;;;33.10;41.60;;;;;;5045208;28;20076;-70
2021/07/11 15:50:46;;;;;;;2.67;2.47;;;32.90;43.60;;;;;;5042329;28;20471;-70
2021/07/11 15:53:15;;;;;;;3.03;2.70;;;33.00;44.60;;;;;;5044560;28;20079;-70
2021/07/11 15:55:41;;;;;;;3.75;2.60;;;32.20;44.00;;;;;;5045331;28;20036;-70
2021/07/11 15:58:08;;;;;;;2.50;2.30;;;31.80;44.90;;;;;;5048956;28;20079;-70
2021/07/11 16:00:35;;;;;;;6.25;2.97;;;31.60;45.60;;;;;;5049219;28;20103;-70
2021/07/11 16:03:02;;;;;;;4.97;2.65;;;31.10;46.10;;;;;;5048411;28;20017;-70
2021/07/11 16:05:28;;;;;;;4.97;2.35;;;30.70;45.70;;;;;;5032478;28;20117;-70
2021/07/11 16:07:55;;;;;;;3.67;2.78;;;30.60;47.90;;;;;;5045788;28;20111;-70
2021/07/11 16:10:22;;;;;;;5.95;2.50;;;30.40;49.10;;;;;;5046174;28;20029;-70
2021/07/11 16:12:47;;;;;;;4.20;2.15;;;30.20;48.20;;;;;;5049056;28;20032;-69
2021/07/11 16:15:13;;;;;;;2.80;2.60;;;29.80;49.60;;;;;;5045275;28;20404;-70
2021/07/11 16:17:38;;;;;;;2.88;2.67;;;29.40;50.30;;;;;;5046481;28;20059;-70
2021/07/11 16:20:06;;;;;;;6.72;2.80;;;29.20;51.50;;;;;;5049274;28;20041;-69
2021/07/11 16:22:32;;;;;;;4.78;2.90;;;29.00;51.70;;;;;;5048131;28;20031;-70
2021/07/11 16:24:57;;;;;;;3.47;2.47;;;29.00;52.60;;;;;;5047981;28;20108;-70
2021/07/11 16:27:23;;;;;;;4.32;2.55;;;29.00;53.30;;;;;;5048818;28;20487;-70
2021/07/11 16:29:48;;;;;;;2.95;2.47;;;29.00;52.90;;;;;;5048371;28;20025;-70
2021/07/11 16:32:14;;;;;;;6.07;2.28;;;28.90;52.60;;;;;;5048715;28;20115;-70
2021/07/11 16:34:39;;;;;;;4.03;2.72;;;28.80;51.10;;;;;;5047594;28;20033;-70
2021/07/11 16:37:05;;;;;;;4.47;2.50;;;28.80;54.10;;;;;;5047068;28;20024;-70
2021/07/11 16:39:30;;;;;;;2.60;2.40;;;28.70;53.60;;;;;;5048889;28;20028;-69
2021/07/11 16:41:56;;;;;;;4.53;2.70;;;28.70;52.30;;;;;;5047633;28;20057;-70
2021/07/11 16:44:21;;;;;;;2.85;2.47;;;28.80;52.00;;;;;;5049032;28;20029;-70
2021/07/11 16:46:51;;;;;;;4.20;2.40;;;28.90;51.90;;;;;;5042797;28;20109;-70
2021/07/11 16:49:19;;;;;;;2.67;2.47;;;29.00;52.30;;;;;;5044674;28;20475;-69
2021/07/11 16:51:46;;;;;;;3.33;2.50;;;29.20;51.70;;;;;;5048334;28;20040;-70
2021/07/11 16:54:14;;;;;;;3.10;2.70;;;29.40;50.60;;;;;;5048616;28;20033;-70
2021/07/11 16:56:40;;;;;;;2.75;2.55;;;29.30;52.10;;;;;;5048224;28;20079;-69
2021/07/11 16:59:06;;;;;;;3.22;2.53;;;29.30;51.30;;;;;;5046225;28;20021;-70
2021/07/11 17:01:32;;;;;;;3.85;2.53;;;29.30;50.20;;;;;;5048573;28;20032;-70
2021/07/11 17:03:58;;;;;;;6.30;2.53;;;29.50;51.50;;;;;;5052354;28;20037;-70
2021/07/11 17:06:25;;;;;;;2.70;2.50;;;29.80;50.80;;;;;;5051216;28;20060;-70
2021/07/11 17:08:51;;;;;;;3.80;2.45;;;29.70;50.60;;;;;;5040822;28;20041;-70
2021/07/11 17:11:16;;;;;;;4.50;3.55;;;30.10;50.60;;;;;;5048998;28;20041;-70
2021/07/11 17:13:42;;;;;;;3.67;3.28;;;30.20;50.10;;;;;;5050186;28;20039;-70
2021/07/11 17:16:07;;;;;;;5.03;2.60;;;30.10;51.20;;;;;;5046417;28;20046;-70
2021/07/11 17:18:33;;;;;;;2.83;2.40;;;29.90;50.60;;;;;;5043755;28;20048;-70
2021/07/11 17:20:59;;;;;;;3.10;2.63;;;29.70;50.00;;;;;;5049734;28;20044;-70
2021/07/11 17:23:24;;;;;;;3.17;2.33;;;29.60;51.30;;;;;;5050897;28;20074;-70
2021/07/11 17:25:51;;;;;;;2.97;2.67;;;29.20;50.80;;;;;;5041754;28;20048;-70
2021/07/11 17:28:17;;;;;;;3.22;2.50;;;28.90;52.00;;;;;;5051865;28;20132;-70
2021/07/11 17:30:42;;;;;;;3.05;2.33;;;28.60;53.90;;;;;;5045987;28;20116;-70
2021/07/11 17:33:09;;;;;;;3.10;2.30;;;28.30;53.70;;;;;;5050608;28;20120;-69
2021/07/11 17:35:35;;;;;;;2.85;2.55;;;27.90;55.70;;;;;;5050120;28;20079;-70
2021/07/11 17:38:01;;;;;;;2.60;2.40;;;27.80;55.10;;;;;;5054372;28;20020;-70
2021/07/11 17:40:27;;;;;;;4.60;2.75;;;27.60;54.40;;;;;;5048886;28;20059;-71
2021/07/11 17:42:53;;;;;;;3.50;2.70;;;27.50;54.80;;;;;;5049198;28;20044;-71
2021/07/11 17:45:18;;;;;;;3.22;2.92;;;27.30;55.90;;;;;;5051206;28;20417;-71
2021/07/11 17:47:44;;;;;;;4.28;2.38;;;27.10;56.60;;;;;;5051750;28;20078;-70
2021/07/11 17:50:11;;;;;;;3.17;2.80;;;27.10;57.40;;;;;;5051135;28;20113;-71
2021/07/11 17:52:37;;;;;;;3.60;2.95;;;27.00;57.60;;;;;;5046368;28;20090;-77
2021/07/11 17:55:03;;;;;;;3.13;2.83;;;26.90;57.90;;;;;;5050318;28;20028;-70
2021/07/11 17:57:28;;;;;;;9.90;3.00;;;26.80;59.20;;;;;;5051471;28;20507;-70
2021/07/11 17:59:54;;;;;;;7.05;3.60;;;26.70;61.60;;;;;;5047474;28;20108;-70
2021/07/11 18:02:19;;;;;;;7.93;3.60;;;26.50;59.30;;;;;;5049668;28;20059;-70
2021/07/11 18:04:45;;;;;;;5.60;3.60;;;26.40;63.80;;;;;;5050979;28;20024;-70
2021/07/11 18:07:10;;;;;;;9.35;4.25;;;26.40;64.00;;;;;;5050522;28;20036;-70
2021/07/11 18:09:36;;;;;;;16.60;4.80;;;26.30;68.90;;;;;;5051090;28;20561;-70
2021/07/11 18:12:02;;;;;;;16.75;5.25;;;26.20;70.60;;;;;;5048371;28;20041;-70
2021/07/11 18:14:27;;;;;;;8.25;4.60;;;26.10;75.00;;;;;;5049867;28;20028;-70
2021/07/11 18:16:53;;;;;;;12.27;4.80;;;26.00;81.40;;;;;;5050871;28;20391;-70
2021/07/11 18:19:18;;;;;;;11.50;4.32;;;25.80;82.20;;;;;;5051126;28;20025;-70
2021/07/11 18:21:44;;;;;;;4.55;3.50;;;25.70;77.10;;;;;;5047421;28;20104;-70
2021/07/11 18:24:09;;;;;;;6.75;3.70;;;25.70;76.90;;;;;;5049375;28;20032;-72
2021/07/11 18:26:35;;;;;;;4.28;3.63;;;25.70;87.80;;;;;;5050530;28;20484;-71
2021/07/11 18:29:00;;;;;;;6.45;4.45;;;25.60;90.40;;;;;;5049715;28;20044;-71
2021/07/11 18:31:26;;;;;;;5.03;3.92;;;25.50;93.50;;;;;;5048598;28;20024;-71
2021/07/11 18:33:51;;;;;;;4.95;3.92;;;25.40;94.10;;;;;;5050795;28;20163;-71
2021/07/11 18:36:21;;;;;;;4.35;3.92;;;25.30;96.30;;;;;;5050591;28;20029;-71
2021/07/11 18:38:47;;;;;;;3.97;3.50;;;25.20;95.50;;;;;;5049715;28;20365;-71
2021/07/11 18:41:13;;;;;;;4.72;4.05;;;25.10;96.10;;;;;;5039945;28;20021;-71
2021/07/11 18:43:39;;;;;;;4.68;3.58;;;25.00;98.70;;;;;;5047969;28;20036;-70
2021/07/11 18:46:04;;;;;;;4.38;3.63;;;24.90;99.90;;;;;;5049004;28;20078;-70
2021/07/11 18:48:54;;;;;;;4.28;3.88;;;24.90;99.90;;;;;;5046491;28;20065;-71
2021/07/11 18:51:20;;;;;;;6.90;4.10;;;24.80;99.90;;;;;;5046497;28;20031;-70
2021/07/11 18:53:47;;;;;;;4.85;4.00;;;24.60;99.90;;;;;;5050766;28;20284;-69
2021/07/11 18:56:12;;;;;;;4.88;3.95;;;24.60;99.90;;;;;;5041666;28;20021;-68
2021/07/11 18:58:37;;;;;;;5.50;4.05;;;24.50;99.90;;;;;;5049615;28;20037;-68
2021/07/11 19:01:03;;;;;;;5.00;3.92;;;24.50;99.90;;;;;;5048261;28;20017;-70
2021/07/11 19:03:32;;;;;;;6.63;4.47;;;24.40;99.90;;;;;;5047230;28;20029;-69
2021/07/11 19:05:58;;;;;;;4.53;3.90;;;24.30;99.90;;;;;;5047066;28;20033;-69
2021/07/11 19:08:23;;;;;;;5.38;4.18;;;24.20;99.90;;;;;;5049075;28;20481;-69
2021/07/11 19:10:49;;;;;;;8.15;4.43;;;24.20;99.90;;;;;;5043505;28;20033;-69
2021/07/11 19:13:18;;;;;;;5.18;4.68;;;24.10;99.90;;;;;;5050081;28;20620;-69
2021/07/11 19:15:44;;;;;;;5.63;4.85;;;24.00;99.90;;;;;;5047043;28;20127;-69
2021/07/11 19:18:09;;;;;;;8.07;5.47;;;23.90;99.90;;;;;;5043707;28;20143;-69
2021/07/11 19:20:35;;;;;;;6.40;4.78;;;23.80;99.90;;;;;;5049859;28;20104;-70
2021/07/11 19:23:00;;;;;;;6.40;4.80;;;23.80;99.90;;;;;;5047000;28;20021;-69
2021/07/11 19:25:28;;;;;;;4.97;4.30;;;23.70;99.90;;;;;;5049135;28;20032;-69
2021/07/11 19:27:56;;;;;;;7.28;4.85;;;23.60;99.90;;;;;;5049430;28;20498;-70
2021/07/11 19:30:22;;;;;;;5.13;4.45;;;23.60;99.90;;;;;;5043118;28;20025;-69
2021/07/11 19:32:47;;;;;;;4.75;4.10;;;23.50;99.90;;;;;;5047655;28;20059;-70
2021/07/11 19:35:16;;;;;;;8.43;4.80;;;23.40;99.90;;;;;;5044700;28;20041;-70
2021/07/11 19:37:44;;;;;;;6.38;4.53;;;23.30;99.90;;;;;;5048965;28;20044;-70
2021/07/11 19:40:10;;;;;;;5.22;4.50;;;23.30;99.90;;;;;;5047037;28;20393;-70
2021/07/11 19:42:35;;;;;;;5.43;4.90;;;23.30;99.90;;;;;;5052787;28;20541;-70
2021/07/11 19:45:01;;;;;;;9.02;5.20;;;23.20;99.90;;;;;;5048519;28;20028;-69
2021/07/11 19:47:27;;;;;;;5.47;4.47;;;23.20;99.90;;;;;;5049269;28;20759;-70
2021/07/11 19:49:52;;;;;;;10.70;4.85;;;23.10;99.90;;;;;;5046411;28;20036;-70
2021/07/11 19:52:19;;;;;;;6.82;4.90;;;23.10;99.90;;;;;;5049190;28;20381;-70
2021/07/11 19:54:45;;;;;;;8.55;4.85;;;23.00;99.90;;;;;;5040974;28;20046;-70
2021/07/11 19:57:11;;;;;;;8.38;4.95;;;23.00;99.90;;;;;;5049080;28;20025;-70
2021/07/11 19:59:37;;;;;;;7.07;4.78;;;22.90;99.90;;;;;;5048943;28;20017;-70
2021/07/11 20:02:03;;;;;;;6.50;5.28;;;22.90;99.90;;;;;;5045739;28;20025;-70
2021/07/11 20:04:29;;;;;;;6.50;5.32;;;22.90;99.90;;;;;;5048360;28;20479;-70
2021/07/11 20:06:55;;;;;;;5.63;4.93;;;22.80;99.90;;;;;;5048512;28;20021;-70
2021/07/11 20:09:23;;;;;;;6.75;5.10;;;22.80;99.90;;;;;;5048213;28;20507;-70
2021/07/11 20:11:49;;;;;;;6.25;4.93;;;22.80;99.90;;;;;;5046864;28;20040;-70
2021/07/11 20:14:16;;;;;;;7.53;4.85;;;22.80;99.90;;;;;;5046485;28;20052;-70
2021/07/11 20:16:41;;;;;;;6.35;4.88;;;22.80;99.90;;;;;;5052459;28;20032;-70
2021/07/11 20:19:07;;;;;;;8.10;5.03;;;22.80;99.90;;;;;;5049170;28;20037;-70
2021/07/11 20:21:32;;;;;;;5.80;4.80;;;22.70;99.90;;;;;;5041953;28;20025;-70
2021/07/11 20:23:58;;;;;;;6.18;4.85;;;22.70;99.90;;;;;;5045231;28;20523;-70
2021/07/11 20:26:23;;;;;;;5.47;4.90;;;22.60;99.90;;;;;;5047110;28;20052;-70
2021/07/11 20:28:49;;;;;;;6.53;5.18;;;22.60;99.90;;;;;;5044928;28;20033;-70
2021/07/11 20:31:15;;;;;;;5.47;4.60;;;22.60;99.90;;;;;;5046737;28;20095;-70
2021/07/11 20:33:41;;;;;;;5.47;4.78;;;22.50;99.90;;;;;;5047694;28;20377;-70
2021/07/11 20:36:09;;;;;;;6.45;4.65;;;22.50;99.90;;;;;;5047705;28;20029;-69
2021/07/11 20:38:35;;;;;;;8.45;4.85;;;22.40;99.90;;;;;;5057279;28;20029;-70
2021/07/11 20:41:00;;;;;;;7.50;5.10;;;22.40;99.90;;;;;;5051036;28;20094;-70
2021/07/11 20:43:25;;;;;;;5.38;4.75;;;22.30;99.90;;;;;;5052508;28;20083;-70
2021/07/11 20:45:51;;;;;;;8.15;5.03;;;22.30;99.90;;;;;;5051931;28;20048;-70
2021/07/11 20:48:16;;;;;;;8.82;4.72;;;22.30;99.90;;;;;;5050890;28;20035;-69
2021/07/11 20:50:42;;;;;;;6.32;5.20;;;22.20;99.90;;;;;;5052171;28;20491;-69
2021/07/11 20:53:08;;;;;;;5.93;5.10;;;22.20;99.90;;;;;;5050664;28;20079;-69
2021/07/11 20:55:36;;;;;;;5.32;4.80;;;22.10;99.90;;;;;;5051690;28;20403;-69
2021/07/11 20:58:06;;;;;;;9.45;5.43;;;22.10;99.90;;;;;;5050924;28;20039;-69
2021/07/11 21:00:32;;;;;;;9.13;5.20;;;22.10;99.90;;;;;;5051836;28;20029;-69
2021/07/11 21:02:57;;;;;;;6.95;5.22;;;22.00;99.90;;;;;;5050041;28;20259;-69
2021/07/11 21:05:23;;;;;;;6.70;5.47;;;22.00;99.90;;;;;;5049878;28;20091;-68
2021/07/11 21:07:49;;;;;;;6.13;5.10;;;21.90;99.90;;;;;;5049392;28;20033;-69
2021/07/11 21:10:14;;;;;;;5.95;5.10;;;21.90;99.90;;;;;;5051396;28;20025;-69
2021/07/11 21:12:40;;;;;;;6.55;4.97;;;21.80;99.90;;;;;;5050103;28;20033;-69
2021/07/11 21:15:08;;;;;;;6.30;5.53;;;21.80;99.90;;;;;;5050309;28;20045;-69
2021/07/11 21:17:33;;;;;;;9.40;4.70;;;21.70;99.90;;;;;;5050419;28;20041;-69
2021/07/11 21:19:59;;;;;;;5.93;5.32;;;21.70;99.90;;;;;;5050419;28;20118;-69
2021/07/11 21:22:24;;;;;;;13.63;5.20;;;21.60;99.90;;;;;;5050587;28;20060;-69
2021/07/11 21:24:50;;;;;;;6.38;5.18;;;21.60;99.90;;;;;;5049858;28;20036;-69
2021/07/11 21:27:15;;;;;;;5.82;5.22;;;21.60;99.90;;;;;;5051220;28;20033;-69
2021/07/11 21:29:41;;;;;;;5.63;5.10;;;21.50;99.90;;;;;;5051062;28;20033;-69
2021/07/11 21:32:07;;;;;;;5.45;4.93;;;21.50;99.90;;;;;;5049439;28;20025;-69
2021/07/11 21:34:32;;;;;;;6.10;4.97;;;21.40;99.90;;;;;;5050073;28;20087;-68
2021/07/11 21:36:58;;;;;;;8.30;5.30;;;21.30;99.90;;;;;;5048568;28;20500;-69
2021/07/11 21:39:24;;;;;;;8.45;5.22;;;21.30;99.90;;;;;;5048591;28;20037;-69
2021/07/11 21:41:50;;;;;;;6.80;5.20;;;21.30;99.90;;;;;;5048039;28;20032;-69
2021/07/11 21:44:16;;;;;;;5.70;5.10;;;21.20;99.90;;;;;;5050223;28;20044;-69
2021/07/11 21:46:42;;;;;;;6.95;5.57;;;21.20;99.90;;;;;;5048238;28;20399;-69
2021/07/11 21:49:10;;;;;;;6.03;5.10;;;21.20;99.90;;;;;;5050299;28;20033;-68
2021/07/11 21:51:37;;;;;;;8.02;5.32;;;21.20;99.90;;;;;;5049329;28;20028;-68
2021/07/11 21:54:02;;;;;;;7.50;4.97;;;21.10;99.90;;;;;;5047413;28;20024;-68
2021/07/11 21:56:28;;;;;;;7.53;5.18;;;21.10;99.90;;;;;;5049118;28;20257;-70
2021/07/11 21:58:54;;;;;;;6.85;5.07;;;21.10;98.50;;;;;;5050918;28;20033;-69
2021/07/11 22:01:20;;;;;;;7.85;4.90;;;21.20;99.90;;;;;;5043458;28;20029;-71
2021/07/11 22:03:45;;;;;;;7.00;5.30;;;21.20;99.90;;;;;;5048166;28;20423;-70
2021/07/11 22:06:11;;;;;;;5.40;4.78;;;21.20;99.90;;;;;;5050512;28;20037;-71
2021/07/11 22:08:38;;;;;;;5.80;4.80;;;21.30;99.90;;;;;;5050560;28;20041;-70
2021/07/11 22:11:04;;;;;;;7.15;4.97;;;21.30;99.90;;;;;;5046432;28;20043;-70
2021/07/11 22:13:30;;;;;;;8.82;5.05;;;21.30;99.90;;;;;;5048213;28;20060;-70
2021/07/11 22:15:56;;;;;;;5.15;4.35;;;21.30;99.90;;;;;;5048523;28;20044;-71
2021/07/11 22:18:22;;;;;;;5.30;4.57;;;21.20;99.90;;;;;;5049551;28;20025;-71
2021/07/11 22:20:47;;;;;;;4.95;4.45;;;21.20;99.30;;;;;;5049396;28;20075;-69
2021/07/11 22:23:13;;;;;;;8.57;4.72;;;21.30;99.90;;;;;;5047070;28;20479;-70
2021/07/11 22:25:38;;;;;;;6.15;5.43;;;21.30;99.90;;;;;;5049859;28;20115;-70
2021/07/11 22:28:05;;;;;;;7.93;4.90;;;21.30;99.90;;;;;;5050089;28;20036;-71
2021/07/11 22:30:31;;;;;;;6.80;4.97;;;21.30;99.90;;;;;;5052047;28;20029;-70
2021/07/11 22:32:57;;;;;;;6.93;4.38;;;21.30;99.90;;;;;;5049084;28;20524;-70
2021/07/11 22:35:23;;;;;;;7.38;4.38;;;21.20;99.90;;;;;;5050083;28;20032;-69
2021/07/11 22:37:50;;;;;;;5.30;4.80;;;21.20;99.90;;;;;;5050641;28;20024;-70
2021/07/11 22:40:18;;;;;;;6.38;4.93;;;21.20;99.90;;;;;;5049322;28;20048;-70
2021/07/11 22:42:43;;;;;;;7.30;5.45;;;21.10;99.90;;;;;;5047954;28;20495;-70
2021/07/11 22:45:11;;;;;;;6.80;5.07;;;21.10;99.90;;;;;;5050665;28;20025;-70
2021/07/11 22:47:39;;;;;;;5.63;5.00;;;21.00;99.90;;;;;;5043019;28;20029;-70
2021/07/11 22:50:07;;;;;;;5.10;4.57;;;21.10;99.90;;;;;;5049190;28;20029;-69
2021/07/11 22:52:33;;;;;;;12.80;4.70;;;21.00;99.90;;;;;;5056348;28;20024;-69
2021/07/11 22:54:58;;;;;;;6.15;5.13;;;21.10;99.90;;;;;;5049841;28;20047;-69
2021/07/11 22:57:24;;;;;;;6.47;5.75;;;21.00;99.90;;;;;;5049484;28;20029;-70
2021/07/11 22:59:49;;;;;;;6.85;4.90;;;21.00;99.90;;;;;;5048404;28;20025;-69
2021/07/11 23:02:18;;;;;;;6.35;5.63;;;21.00;99.90;;;;;;5042016;28;20028;-69
2021/07/11 23:04:43;;;;;;;9.27;5.88;;;20.90;99.90;;;;;;5043406;28;20017;-70
2021/07/11 23:07:09;;;;;;;6.88;4.80;;;20.90;99.90;;;;;;5049885;28;20029;-70
2021/07/11 23:09:34;;;;;;;6.03;5.43;;;20.80;99.90;;;;;;5048038;28;20037;-70
2021/07/11 23:12:00;;;;;;;6.03;5.43;;;20.80;99.90;;;;;;5047828;28;20035;-69
2021/07/11 23:14:25;;;;;;;7.40;5.20;;;20.70;99.90;;;;;;5048674;28;20029;-71
2021/07/11 23:16:51;;;;;;;6.82;5.22;;;20.70;99.90;;;;;;5049187;28;20025;-69
2021/07/11 23:19:29;;;;;;;6.32;5.18;;;20.60;99.90;;;;;;5049353;28;20021;-70
2021/07/11 23:21:54;;;;;;;7.20;5.82;;;20.60;99.90;;;;;;5048492;28;20594;-69
2021/07/11 23:24:20;;;;;;;6.80;5.53;;;20.60;99.90;;;;;;5048428;28;20141;-69
2021/07/11 23:26:47;;;;;;;6.00;5.07;;;20.50;99.90;;;;;;5049980;28;20055;-70
2021/07/11 23:29:13;;;;;;;6.03;5.32;;;20.50;99.90;;;;;;5049158;28;20032;-69
2021/07/11 23:31:38;;;;;;;5.88;5.28;;;20.50;99.90;;;;;;5047832;28;20086;-70
2021/07/11 23:34:04;;;;;;;12.25;5.25;;;20.40;99.90;;;;;;5044022;28;20415;-68
2021/07/11 23:36:33;;;;;;;8.43;5.68;;;20.40;99.90;;;;;;5048851;28;20037;-68
2021/07/11 23:39:07;;;;;;;8.48;5.85;;;20.40;99.90;;;;;;5049421;28;20029;-68
2021/07/11 23:41:33;;;;;;;7.78;5.78;;;20.30;99.90;;;;;;5044755;28;20112;-69
2021/07/11 23:44:05;;;;;;;7.70;6.18;;;20.30;99.90;;;;;;5053909;28;20107;-71
2021/07/11 23:46:31;;;;;;;7.70;5.45;;;20.30;99.90;;;;;;5061068;28;20115;-69
2021/07/11 23:48:56;;;;;;;6.13;5.50;;;20.30;99.90;;;;;;5049409;28;20120;-69
2021/07/11 23:51:23;;;;;;;5.72;5.13;;;20.30;99.90;;;;;;5048865;28;20494;-71
2021/07/11 23:53:48;;;;;;;7.50;5.43;;;20.30;99.90;;;;;;5049377;28;20056;-69
2021/07/11 23:56:14;;;;;;;9.38;5.50;;;20.30;99.90;;;;;;5048763;28;20447;-69
2021/07/11 23:58:39;;;;;;;5.88;5.28;;;20.20;99.90;;;;;;5049318;28;20027;-69
